Terminal Aerodrome Forecast
Issued by NWS

Home | Current Version | Previous Version | Text Only | Print | Product List | Glossary On
Versions: 1 2 3 4 5 6 7 8 9 10 11 12 13 14 15 16 17 18 19 20 21 22 23 24 25 26 27 28 29 30 31 32 33 34 35 36 37 38 39 40 41 42 43 44 45 46 47 48 49
000
FTUS45 KGJT 272329
TAFASE
TAF
KASE 272329Z 2800/2824 35009KT P6SM VCTS SCT070CB
      TEMPO 2800/2804 VRB20G30KT -TSRA SCT040CB
     FM280400 21007KT P6SM FEW060 BKN100
     FM280600 19004KT P6SM SCT100 BKN150
     FM281200 VRB04KT P6SM BKN120
     FM282100 30008KT P6SM VCSH SCT080 BKN120=

USA.gov is the U.S. government's official web portal to all federal, state and local government web resources and services.